createdAt,value
2022-12-23T00:12:23.336Z,10.00
2022-12-23T00:15:05.186Z,10.00
2022-12-23T00:17:42.222Z,10.00
2022-12-23T00:20:12.117Z,10.00
2022-12-23T00:22:57.961Z,10.00
2022-12-23T00:25:40.322Z,10.00
2022-12-23T00:28:13.267Z,9.90
2022-12-23T00:30:54.508Z,10.00
2022-12-23T00:33:24.487Z,10.00
2022-12-23T00:35:51.953Z,9.90
2022-12-23T00:38:37.947Z,9.90
2022-12-23T00:41:24.956Z,9.90
2022-12-23T00:43:51.775Z,9.90
2022-12-23T00:46:18.550Z,9.90
2022-12-23T00:49:04.085Z,9.90
2022-12-23T00:51:30.765Z,9.90
2022-12-23T00:53:57.403Z,9.90
2022-12-23T00:56:24.124Z,9.90
2022-12-23T00:58:50.831Z,9.90
2022-12-23T01:01:36.510Z,9.90
2022-12-23T01:04:22.272Z,9.90
2022-12-23T01:06:48.925Z,9.90
2022-12-23T01:09:15.731Z,9.90
2022-12-23T01:11:42.783Z,9.90
2022-12-23T01:14:09.567Z,9.80
2022-12-23T01:16:39.786Z,9.80
2022-12-23T01:19:07.180Z,9.80
2022-12-23T01:21:34.152Z,9.80
2022-12-23T01:24:01.273Z,9.80
2022-12-23T01:26:27.879Z,9.80
2022-12-23T01:28:56.604Z,9.80
2022-12-23T01:31:25.127Z,9.80
2022-12-23T01:33:52.444Z,9.80
2022-12-23T01:36:20.223Z,9.80
2022-12-23T01:38:47.298Z,9.80
2022-12-23T01:41:48.466Z,9.80
2022-12-23T01:44:52.638Z,9.80
2022-12-23T01:47:53.447Z,9.80
2022-12-23T01:51:12.842Z,9.80
2022-12-23T01:53:46.288Z,9.80
2022-12-23T01:56:39.794Z,9.80
2022-12-23T01:59:35.063Z,9.80
2022-12-23T02:02:20.958Z,9.80
2022-12-23T02:04:49.602Z,9.80
2022-12-23T02:07:35.836Z,9.80
2022-12-23T02:10:04.313Z,9.80
2022-12-23T02:13:08.418Z,9.80
2022-12-23T02:16:15.277Z,9.80
2022-12-23T02:19:12.329Z,9.80
2022-12-23T02:22:16.441Z,9.80
2022-12-23T02:25:09.730Z,9.80
2022-12-23T02:28:08.171Z,9.80
2022-12-23T02:30:51.259Z,9.80
2022-12-23T02:33:28.164Z,9.80
2022-12-23T02:36:13.608Z,9.80
2022-12-23T02:38:54.768Z,9.80
2022-12-23T02:41:50.643Z,9.80
2022-12-23T02:44:21.297Z,9.70
2022-12-23T02:46:54.498Z,9.70
2022-12-23T02:49:30.214Z,9.70
2022-12-23T02:52:01.497Z,9.70
2022-12-23T02:54:32.434Z,9.70
2022-12-23T02:57:02.629Z,9.70
2022-12-23T02:59:34.249Z,9.70
2022-12-23T03:02:01.498Z,9.70
2022-12-23T03:04:28.209Z,9.70
2022-12-23T03:06:57.047Z,9.60
2022-12-23T03:09:53.830Z,9.70
2022-12-23T03:12:23.218Z,9.70
2022-12-23T03:14:52.954Z,9.60
2022-12-23T03:17:37.403Z,9.70
2022-12-23T03:20:26.974Z,9.70
2022-12-23T03:23:18.476Z,9.60
2022-12-23T03:25:55.725Z,9.60
2022-12-23T03:28:43.895Z,9.60
2022-12-23T03:31:15.921Z,9.60
2022-12-23T03:33:48.024Z,9.60
2022-12-23T03:36:34.594Z,9.60
2022-12-23T03:39:05.406Z,9.60
2022-12-23T03:41:38.495Z,9.60
2022-12-23T03:44:18.823Z,9.60
2022-12-23T03:46:57.514Z,9.60
2022-12-23T03:49:31.226Z,9.60
2022-12-23T03:52:07.352Z,9.60
2022-12-23T03:54:48.217Z,9.50
2022-12-23T03:57:15.575Z,9.50
2022-12-23T03:59:50.507Z,9.50
2022-12-23T04:02:38.636Z,9.50
2022-12-23T04:05:31.846Z,9.50
2022-12-23T04:08:01.538Z,9.50
2022-12-23T04:10:28.653Z,9.50
2022-12-23T04:12:55.475Z,9.50
2022-12-23T04:15:23.987Z,9.50
2022-12-23T04:17:52.494Z,9.40
2022-12-23T04:20:19.506Z,9.40
2022-12-23T04:22:46.352Z,9.50
2022-12-23T04:25:14.535Z,9.40
2022-12-23T04:27:41.777Z,9.40
2022-12-23T04:30:10.814Z,9.40
2022-12-23T04:32:38.049Z,9.40
2022-12-23T04:35:05.126Z,9.40
2022-12-23T04:37:31.912Z,9.40
2022-12-23T04:39:58.602Z,9.40
2022-12-23T04:42:25.180Z,9.40
2022-12-23T04:44:51.862Z,9.30
2022-12-23T04:47:18.587Z,9.30
2022-12-23T04:49:45.182Z,9.30
2022-12-23T04:52:11.935Z,9.30
2022-12-23T04:54:45.491Z,9.20
2022-12-23T04:57:12.836Z,9.20
2022-12-23T04:59:39.526Z,9.20
2022-12-23T05:02:06.464Z,9.20
2022-12-23T05:04:33.496Z,9.20
2022-12-23T05:07:00.147Z,9.20
2022-12-23T05:09:26.799Z,9.30
2022-12-23T05:11:53.512Z,9.20
2022-12-23T05:14:20.192Z,9.20
2022-12-23T05:16:46.852Z,9.20
2022-12-23T05:19:13.717Z,9.20
2022-12-23T05:21:40.292Z,9.10
2022-12-23T05:24:07.000Z,9.20
2022-12-23T05:26:33.772Z,9.20
2022-12-23T05:29:00.447Z,9.10
2022-12-23T05:31:27.095Z,9.10
2022-12-23T05:33:53.814Z,9.10
2022-12-23T05:36:20.517Z,9.10
2022-12-23T05:38:47.950Z,9.00
2022-12-23T05:41:16.786Z,9.10
2022-12-23T05:43:43.448Z,9.00
2022-12-23T05:46:10.239Z,9.10
2022-12-23T05:48:36.907Z,9.10
2022-12-23T05:51:03.709Z,9.10
2022-12-23T05:53:30.469Z,9.10
2022-12-23T05:55:57.069Z,9.00
2022-12-23T05:58:23.959Z,9.10
2022-12-23T06:00:50.604Z,9.10
2022-12-23T06:03:17.599Z,9.10
2022-12-23T06:05:44.605Z,9.00
2022-12-23T06:08:11.365Z,9.00
2022-12-23T06:10:38.153Z,9.10
2022-12-23T06:13:04.862Z,9.10
2022-12-23T06:15:31.556Z,9.10
2022-12-23T06:17:58.321Z,9.10
2022-12-23T06:20:24.972Z,9.10
2022-12-23T06:22:51.648Z,9.10
2022-12-23T06:25:18.527Z,9.10
2022-12-23T06:27:45.225Z,9.10
2022-12-23T06:30:12.176Z,9.10
2022-12-23T06:32:39.150Z,9.10
2022-12-23T06:35:07.273Z,9.10
2022-12-23T06:37:34.177Z,9.10
2022-12-23T06:40:00.845Z,9.10
2022-12-23T06:42:27.501Z,9.10
2022-12-23T06:44:54.115Z,9.10
2022-12-23T06:47:20.772Z,9.10
2022-12-23T06:49:47.388Z,9.10
2022-12-23T06:52:14.038Z,9.10
2022-12-23T06:54:40.767Z,9.10
2022-12-23T06:57:07.409Z,9.10
2022-12-23T06:59:34.093Z,9.10
2022-12-23T07:02:01.107Z,9.10
2022-12-23T07:04:27.917Z,9.10
2022-12-23T07:06:54.557Z,9.10
2022-12-23T07:09:21.395Z,9.10
2022-12-23T07:11:48.052Z,9.10
2022-12-23T07:14:14.766Z,9.10
2022-12-23T07:16:41.593Z,9.10
2022-12-23T07:19:08.290Z,9.10
2022-12-23T07:21:36.611Z,9.10
2022-12-23T07:24:03.585Z,9.10
2022-12-23T07:26:30.299Z,9.10
2022-12-23T07:28:56.970Z,9.10
2022-12-23T07:31:23.956Z,9.10
2022-12-23T07:33:50.813Z,9.10
2022-12-23T07:36:17.818Z,9.10
2022-12-23T07:38:44.722Z,9.10
2022-12-23T07:41:11.463Z,9.10
2022-12-23T07:43:38.164Z,9.10
2022-12-23T07:46:09.284Z,9.10
2022-12-23T07:48:36.282Z,9.10
2022-12-23T07:51:03.823Z,9.10
2022-12-23T07:53:30.533Z,9.10
2022-12-23T07:55:57.426Z,9.10
2022-12-23T07:58:24.450Z,9.10
2022-12-23T08:00:51.591Z,9.10
2022-12-23T08:03:18.329Z,9.10
2022-12-23T08:05:45.084Z,9.10
2022-12-23T08:08:12.692Z,9.10
2022-12-23T08:10:46.185Z,9.10
2022-12-23T08:13:15.139Z,9.10
2022-12-23T08:15:41.821Z,9.10
2022-12-23T08:18:08.456Z,9.10
2022-12-23T08:20:35.166Z,9.10
2022-12-23T08:23:01.783Z,9.10
2022-12-23T08:25:28.457Z,9.10
2022-12-23T08:27:55.400Z,9.10
2022-12-23T08:30:22.077Z,9.10
2022-12-23T08:32:48.724Z,9.10
2022-12-23T08:35:15.457Z,9.10
2022-12-23T08:37:42.362Z,9.10
2022-12-23T08:40:09.491Z,9.10
2022-12-23T08:42:36.127Z,9.10
2022-12-23T08:45:02.882Z,9.10
2022-12-23T08:47:29.607Z,9.10
2022-12-23T08:49:56.444Z,9.10
2022-12-23T08:52:23.390Z,9.10
2022-12-23T08:54:50.009Z,9.10
2022-12-23T08:57:16.767Z,9.10
2022-12-23T08:59:43.389Z,9.10
2022-12-23T09:02:11.993Z,9.10
2022-12-23T09:04:38.898Z,9.10
2022-12-23T09:07:06.015Z,9.10
2022-12-23T09:09:32.684Z,9.10
2022-12-23T09:11:59.493Z,9.10
2022-12-23T09:14:26.188Z,9.10
2022-12-23T09:16:52.926Z,9.10
2022-12-23T09:19:19.679Z,9.10
2022-12-23T09:21:46.438Z,9.10
2022-12-23T09:24:13.114Z,9.10
2022-12-23T09:26:39.937Z,9.20
2022-12-23T09:29:06.674Z,9.20
2022-12-23T09:31:37.314Z,9.20
2022-12-23T09:34:04.943Z,9.20
2022-12-23T09:36:31.580Z,9.20
2022-12-23T09:38:59.000Z,9.20
2022-12-23T09:41:29.024Z,9.20
2022-12-23T09:43:58.745Z,9.30
2022-12-23T09:46:28.513Z,9.30
2022-12-23T09:49:04.288Z,9.30
2022-12-23T09:51:32.997Z,9.30
2022-12-23T09:54:19.409Z,9.30
2022-12-23T09:57:21.050Z,9.30
2022-12-23T10:00:03.752Z,9.40
2022-12-23T10:02:30.466Z,9.40
2022-12-23T10:05:19.049Z,9.40
2022-12-23T10:08:07.550Z,9.40
2022-12-23T10:10:55.536Z,9.40
2022-12-23T10:14:15.758Z,9.40
2022-12-23T10:16:45.917Z,9.40
2022-12-23T10:19:26.282Z,9.40
2022-12-23T10:21:54.309Z,9.40
2022-12-23T10:24:26.685Z,9.40
2022-12-23T10:27:02.311Z,9.50
2022-12-23T10:29:33.973Z,9.50
2022-12-23T10:32:17.234Z,9.50
2022-12-23T10:34:54.656Z,9.50
2022-12-23T10:37:35.705Z,9.50
2022-12-23T10:40:16.364Z,9.50
2022-12-23T10:43:04.972Z,9.50
2022-12-23T10:45:59.348Z,9.50
2022-12-23T10:48:34.992Z,9.60
2022-12-23T10:51:14.723Z,9.60
2022-12-23T10:54:05.989Z,9.60
2022-12-23T10:56:32.941Z,9.50
2022-12-23T10:59:01.392Z,9.60
2022-12-23T11:01:31.829Z,9.60
2022-12-23T11:04:10.121Z,9.60
2022-12-23T11:06:43.648Z,9.60
2022-12-23T11:09:17.823Z,9.60
2022-12-23T11:12:01.308Z,9.60
2022-12-23T11:14:32.408Z,9.60
2022-12-23T11:16:59.328Z,9.60
2022-12-23T11:19:25.985Z,9.60
2022-12-23T11:21:57.917Z,9.60
2022-12-23T11:24:26.526Z,9.60
2022-12-23T11:27:02.221Z,9.60
2022-12-23T11:29:38.685Z,9.60
2022-12-23T11:32:18.334Z,9.60
2022-12-23T11:34:46.914Z,9.60
2022-12-23T11:37:44.121Z,9.60
2022-12-23T11:40:33.691Z,9.60
2022-12-23T11:43:04.408Z,9.60
2022-12-23T11:45:35.684Z,9.60
2022-12-23T11:48:25.796Z,9.60
2022-12-23T11:51:01.023Z,9.60
2022-12-23T11:53:28.079Z,9.50
2022-12-23T11:56:03.358Z,9.60
2022-12-23T11:58:34.887Z,9.60
2022-12-23T12:01:08.476Z,9.60
2022-12-23T12:03:46.950Z,9.60
2022-12-23T12:06:16.169Z,9.60
2022-12-23T12:08:42.968Z,9.60
2022-12-23T12:11:16.918Z,9.60
2022-12-23T12:13:47.555Z,9.60
2022-12-23T12:16:42.508Z,9.60
2022-12-23T12:19:25.564Z,9.60
2022-12-23T12:21:56.144Z,9.60
2022-12-23T12:24:31.342Z,9.60
2022-12-23T12:27:02.405Z,9.50
2022-12-23T12:29:48.747Z,9.50
2022-12-23T12:32:25.039Z,9.50
2022-12-23T12:35:07.823Z,9.50
2022-12-23T12:37:49.520Z,9.50
2022-12-23T12:40:51.067Z,9.50
2022-12-23T12:43:29.641Z,9.50
2022-12-23T12:46:24.033Z,9.50
2022-12-23T12:49:11.031Z,9.50
2022-12-23T12:51:48.286Z,9.50
2022-12-23T12:54:33.455Z,9.50
2022-12-23T12:57:02.271Z,9.50
2022-12-23T12:59:33.474Z,9.50
2022-12-23T13:02:19.091Z,9.50
2022-12-23T13:05:18.878Z,9.50
2022-12-23T13:08:14.296Z,9.50
2022-12-23T13:10:52.101Z,9.50
2022-12-23T13:13:31.414Z,9.60
2022-12-23T13:16:16.473Z,9.60
2022-12-23T13:18:54.762Z,9.60
2022-12-23T13:21:30.865Z,9.50
2022-12-23T13:24:32.463Z,9.50
2022-12-23T13:27:04.693Z,9.60
2022-12-23T13:29:57.566Z,9.60
2022-12-23T13:32:55.230Z,9.60
2022-12-23T13:35:40.505Z,9.50
2022-12-23T13:38:20.109Z,9.60
2022-12-23T13:41:10.452Z,9.50
2022-12-23T13:43:51.318Z,9.50
2022-12-23T13:46:50.626Z,9.60
2022-12-23T13:49:23.176Z,9.60
2022-12-23T13:52:14.194Z,9.60
2022-12-23T13:54:46.822Z,9.60
2022-12-23T13:57:48.043Z,9.60
2022-12-23T14:00:18.001Z,9.60
2022-12-23T14:03:02.751Z,9.60
2022-12-23T14:05:50.930Z,9.60
2022-12-23T14:08:47.767Z,9.60
2022-12-23T14:11:28.395Z,9.60
2022-12-23T14:14:01.420Z,9.70
2022-12-23T14:16:39.823Z,9.70
2022-12-23T14:19:18.305Z,9.70
2022-12-23T14:22:17.832Z,9.70
2022-12-23T14:25:23.937Z,9.70
2022-12-23T14:28:11.128Z,9.60
2022-12-23T14:30:45.707Z,9.60
2022-12-23T14:33:23.853Z,9.60
2022-12-23T14:36:12.673Z,9.60
2022-12-23T14:38:39.586Z,9.70
2022-12-23T14:41:25.260Z,9.60
2022-12-23T14:43:56.766Z,9.70
2022-12-23T14:46:35.505Z,9.60
2022-12-23T14:49:36.783Z,9.70
2022-12-23T14:51:51.075Z,9.70
2022-12-23T14:54:36.442Z,9.60
2022-12-23T14:57:16.707Z,9.70
2022-12-23T14:59:51.297Z,9.70
2022-12-23T15:02:30.952Z,9.60
2022-12-23T15:04:58.908Z,9.60
2022-12-23T15:07:33.661Z,9.60
2022-12-23T15:10:04.232Z,9.60
2022-12-23T15:12:34.133Z,9.60
2022-12-23T15:15:04.588Z,9.60
2022-12-23T15:17:36.461Z,9.60
2022-12-23T15:20:24.907Z,9.60
2022-12-23T15:22:52.801Z,9.60
2022-12-23T15:25:19.356Z,9.60
2022-12-23T15:27:46.198Z,9.60
2022-12-23T15:30:17.057Z,9.60
2022-12-23T15:32:46.654Z,9.50
2022-12-23T15:35:42.854Z,9.60
2022-12-23T15:38:14.595Z,9.60
2022-12-23T15:40:41.616Z,9.60
2022-12-23T15:43:20.453Z,9.60
2022-12-23T15:45:47.152Z,9.60
2022-12-23T15:48:29.175Z,9.60
2022-12-23T15:51:03.539Z,9.60
2022-12-23T15:53:32.175Z,9.60
2022-12-23T15:56:04.954Z,9.60
2022-12-23T15:58:33.960Z,9.60
2022-12-23T16:01:01.770Z,9.60
2022-12-23T16:03:41.868Z,9.60
2022-12-23T16:06:26.893Z,9.50
2022-12-23T16:09:16.822Z,9.50
2022-12-23T16:12:01.919Z,9.50
2022-12-23T16:14:31.341Z,9.50
2022-12-23T16:17:13.220Z,9.60
2022-12-23T16:19:54.855Z,9.60
2022-12-23T16:22:29.048Z,9.60
2022-12-23T16:25:01.549Z,9.60
2022-12-23T16:27:38.704Z,9.60
2022-12-23T16:30:16.090Z,9.60
2022-12-23T16:32:55.088Z,9.60
2022-12-23T16:35:29.562Z,9.60
2022-12-23T16:38:20.229Z,9.60
2022-12-23T16:40:49.263Z,9.60
2022-12-23T16:43:16.369Z,9.60
2022-12-23T16:45:45.505Z,9.60
2022-12-23T16:48:34.424Z,9.60
2022-12-23T16:51:03.691Z,9.60
2022-12-23T16:53:30.415Z,9.60
2022-12-23T16:56:00.809Z,9.60
2022-12-23T16:58:28.117Z,9.60
2022-12-23T17:00:55.129Z,9.60
2022-12-23T17:03:22.111Z,9.60
2022-12-23T17:05:48.948Z,9.50
2022-12-23T17:08:15.749Z,9.60
2022-12-23T17:10:44.630Z,9.60
2022-12-23T17:13:17.003Z,9.60
2022-12-23T17:15:44.155Z,9.60
2022-12-23T17:18:17.320Z,9.60
2022-12-23T17:20:45.904Z,9.70
2022-12-23T17:23:26.323Z,9.70
2022-12-23T17:25:53.809Z,9.70
2022-12-23T17:28:21.651Z,9.80
2022-12-23T17:30:52.748Z,9.80
2022-12-23T17:33:20.250Z,9.90
2022-12-23T17:35:48.041Z,9.90
2022-12-23T17:38:16.280Z,9.90
2022-12-23T17:40:46.690Z,10.00
2022-12-23T17:43:15.581Z,10.00
2022-12-23T17:45:43.147Z,10.10
2022-12-23T17:48:20.086Z,10.20
2022-12-23T17:50:48.543Z,10.20
2022-12-23T17:53:19.711Z,10.30
2022-12-23T17:55:46.585Z,10.30
2022-12-23T17:58:14.249Z,10.30
2022-12-23T18:00:41.377Z,10.40
2022-12-23T18:03:22.532Z,10.40
2022-12-23T18:05:51.136Z,10.40
2022-12-23T18:08:21.006Z,10.40
2022-12-23T18:10:47.976Z,10.50
2022-12-23T18:13:18.605Z,10.50
2022-12-23T18:15:45.663Z,10.50
2022-12-23T18:18:19.000Z,10.50
2022-12-23T18:20:52.085Z,10.50
2022-12-23T18:23:30.020Z,10.50
2022-12-23T18:25:57.761Z,10.50
2022-12-23T18:28:25.569Z,10.50
2022-12-23T18:30:55.017Z,10.60
2022-12-23T18:33:22.142Z,10.50
2022-12-23T18:35:50.064Z,10.50
2022-12-23T18:38:18.249Z,10.60
2022-12-23T18:40:45.582Z,10.60
2022-12-23T18:43:23.407Z,10.50
2022-12-23T18:45:53.546Z,10.50
2022-12-23T18:48:21.310Z,10.50
2022-12-23T18:50:48.441Z,10.60
2022-12-23T18:53:24.379Z,10.60
2022-12-23T18:55:52.617Z,10.60
2022-12-23T18:58:19.878Z,10.60
2022-12-23T19:00:48.170Z,10.60
2022-12-23T19:03:24.013Z,10.60
2022-12-23T19:05:52.575Z,10.60
2022-12-23T19:08:26.347Z,10.50
2022-12-23T19:10:54.634Z,10.60
2022-12-23T19:13:21.503Z,10.60
2022-12-23T19:15:48.273Z,10.50
2022-12-23T19:18:17.493Z,10.50
2022-12-23T19:20:45.507Z,10.50
2022-12-23T19:23:12.877Z,10.60
2022-12-23T19:25:49.119Z,10.60
2022-12-23T19:28:21.582Z,10.60
2022-12-23T19:30:51.213Z,10.60
2022-12-23T19:33:21.163Z,10.60
2022-12-23T19:35:47.817Z,10.60
2022-12-23T19:38:14.567Z,10.60
2022-12-23T19:40:41.179Z,10.60
2022-12-23T19:43:08.225Z,10.60
2022-12-23T19:45:34.883Z,10.60
2022-12-23T19:48:04.155Z,10.50
2022-12-23T19:50:30.772Z,10.60
2022-12-23T19:52:57.418Z,10.50
2022-12-23T19:55:24.242Z,10.50
2022-12-23T19:57:53.868Z,10.50
2022-12-23T20:00:20.579Z,10.50
2022-12-23T20:02:47.385Z,10.50
2022-12-23T20:05:16.957Z,10.50
2022-12-23T20:07:43.656Z,10.50
2022-12-23T20:10:10.778Z,10.50
2022-12-23T20:12:38.673Z,10.50
2022-12-23T20:15:05.645Z,10.50
2022-12-23T20:17:32.366Z,10.50
2022-12-23T20:19:59.003Z,10.50
2022-12-23T20:22:25.672Z,10.50
2022-12-23T20:24:52.427Z,10.50
2022-12-23T20:27:24.192Z,10.50
2022-12-23T20:29:54.513Z,10.50
2022-12-23T20:32:21.191Z,10.50
2022-12-23T20:34:49.912Z,10.40
2022-12-23T20:37:16.701Z,10.50
2022-12-23T20:39:43.385Z,10.50
2022-12-23T20:42:10.172Z,10.50
2022-12-23T20:44:37.692Z,10.40
2022-12-23T20:47:06.066Z,10.50
2022-12-23T20:49:32.932Z,10.50
2022-12-23T20:51:59.706Z,10.50
2022-12-23T20:54:32.186Z,10.50
2022-12-23T20:56:59.810Z,10.50
2022-12-23T20:59:26.719Z,10.50
2022-12-23T21:01:53.498Z,10.50
2022-12-23T21:04:20.583Z,10.50
2022-12-23T21:06:47.613Z,10.50
2022-12-23T21:09:15.821Z,10.50
2022-12-23T21:11:44.937Z,10.50
2022-12-23T21:14:13.055Z,10.50
2022-12-23T21:16:39.859Z,10.50
2022-12-23T21:19:08.689Z,10.50
2022-12-23T21:21:35.527Z,10.50
2022-12-23T21:24:04.264Z,10.50
2022-12-23T21:26:32.906Z,10.50
2022-12-23T21:29:01.098Z,10.40
2022-12-23T21:31:29.562Z,10.40
2022-12-23T21:33:56.728Z,10.40
2022-12-23T21:36:25.817Z,10.40
2022-12-23T21:38:52.939Z,10.40
2022-12-23T21:41:25.283Z,10.40
2022-12-23T21:43:52.201Z,10.40
2022-12-23T21:46:21.228Z,10.40
2022-12-23T21:48:49.631Z,10.30
2022-12-23T21:51:19.242Z,10.20
2022-12-23T21:53:49.012Z,10.10
2022-12-23T21:56:18.376Z,10.10
2022-12-23T21:58:46.155Z,10.10
2022-12-23T22:01:18.513Z,10.20
2022-12-23T22:03:46.725Z,10.20
2022-12-23T22:06:16.123Z,10.20
2022-12-23T22:08:43.500Z,10.20
2022-12-23T22:11:13.277Z,10.20
2022-12-23T22:13:40.922Z,10.30
2022-12-23T22:16:16.344Z,10.20
2022-12-23T22:18:43.311Z,10.20
2022-12-23T22:21:13.688Z,10.20
2022-12-23T22:23:40.799Z,10.10
2022-12-23T22:26:08.345Z,10.10
2022-12-23T22:28:36.886Z,10.20
2022-12-23T22:31:20.925Z,10.10
2022-12-23T22:33:47.901Z,10.10
2022-12-23T22:36:15.734Z,10.10
2022-12-23T22:38:43.469Z,10.10
2022-12-23T22:41:10.713Z,10.10
2022-12-23T22:43:37.818Z,10.10
2022-12-23T22:46:04.995Z,10.10
2022-12-23T22:48:32.742Z,10.10
2022-12-23T22:51:09.431Z,10.10
2022-12-23T22:53:36.932Z,10.00
2022-12-23T22:56:05.245Z,10.00
2022-12-23T22:58:33.918Z,10.00
2022-12-23T23:01:00.828Z,10.00
2022-12-23T23:03:28.151Z,9.90
2022-12-23T23:06:00.694Z,9.90
2022-12-23T23:08:28.946Z,9.90
2022-12-23T23:10:59.983Z,9.90
2022-12-23T23:13:29.882Z,9.90
2022-12-23T23:15:57.250Z,9.90
2022-12-23T23:18:24.770Z,9.90
2022-12-23T23:20:51.628Z,9.90
2022-12-23T23:23:18.347Z,10.00
2022-12-23T23:25:45.640Z,9.90
2022-12-23T23:28:12.919Z,10.00
2022-12-23T23:30:41.932Z,10.00
2022-12-23T23:33:10.372Z,9.90
2022-12-23T23:35:37.517Z,10.00
2022-12-23T23:38:04.234Z,9.90
2022-12-23T23:40:30.936Z,10.00
2022-12-23T23:42:57.604Z,9.90
2022-12-23T23:45:24.584Z,9.90
2022-12-23T23:47:51.190Z,9.90
2022-12-23T23:50:18.034Z,9.90
2022-12-23T23:52:44.688Z,9.90
2022-12-23T23:55:11.543Z,9.90
2022-12-23T23:57:38.412Z,9.90
